createdAt,value
2023-05-19T00:00:51.072Z,6.82
2023-05-19T00:05:55.719Z,6.70
2023-05-19T00:10:59.102Z,6.61
2023-05-19T00:16:03.690Z,6.50
2023-05-19T00:21:06.491Z,6.50
2023-05-19T00:26:09.139Z,6.49
2023-05-19T00:31:13.189Z,6.54
2023-05-19T00:36:16.014Z,6.51
2023-05-19T00:41:19.006Z,6.44
2023-05-19T00:46:23.109Z,6.40
2023-05-19T00:51:29.666Z,6.29
2023-05-19T00:56:32.832Z,6.19
2023-05-19T01:01:37.245Z,6.12
2023-05-19T01:06:40.166Z,6.08
2023-05-19T01:11:43.328Z,5.91
2023-05-19T01:16:56.579Z,5.89
2023-05-19T01:22:24.025Z,5.81
2023-05-19T01:27:45.472Z,5.80
2023-05-19T01:32:50.204Z,5.84
2023-05-19T01:37:55.447Z,5.74
2023-05-19T01:43:00.193Z,5.71
2023-05-19T01:48:05.767Z,5.68
2023-05-19T01:53:09.592Z,5.58
2023-05-19T01:58:22.507Z,5.55
2023-05-19T02:03:38.418Z,5.47
2023-05-19T02:08:44.521Z,5.44
2023-05-19T02:13:51.372Z,5.44
2023-05-19T02:18:56.555Z,5.41
2023-05-19T02:23:59.272Z,5.44
2023-05-19T02:29:01.863Z,5.40
2023-05-19T02:34:06.137Z,5.37
2023-05-19T02:39:08.828Z,5.29
2023-05-19T02:44:11.534Z,5.15
2023-05-19T02:49:15.755Z,5.08
2023-05-19T02:54:18.519Z,5.17
2023-05-19T02:59:22.051Z,5.08
2023-05-19T03:04:26.848Z,5.03
2023-05-19T03:09:29.546Z,5.01
2023-05-19T03:14:33.956Z,4.96
2023-05-19T03:19:38.071Z,4.85
2023-05-19T03:24:41.010Z,4.80
2023-05-19T03:29:43.649Z,4.73
2023-05-19T03:34:47.734Z,4.72
2023-05-19T03:39:51.793Z,4.80
2023-05-19T03:44:54.498Z,4.86
2023-05-19T03:49:58.552Z,4.88
2023-05-19T03:55:01.212Z,4.95
2023-05-19T04:00:06.093Z,5.06
2023-05-19T04:05:11.659Z,5.23
2023-05-19T04:10:14.669Z,5.38
2023-05-19T04:15:17.504Z,5.43
2023-05-19T04:20:21.573Z,5.52
2023-05-19T04:25:25.204Z,5.69
2023-05-19T04:30:28.629Z,5.85
2023-05-19T04:35:32.741Z,6.04
2023-05-19T04:40:35.504Z,6.32
2023-05-19T04:45:42.449Z,6.58
2023-05-19T04:50:48.778Z,7.59
2023-05-19T04:55:51.625Z,8.81
2023-05-19T05:00:55.706Z,8.66
2023-05-19T05:05:59.969Z,8.78
2023-05-19T05:11:03.153Z,9.25
2023-05-19T05:16:08.367Z,10.09
2023-05-19T05:21:13.394Z,10.94
2023-05-19T05:26:19.668Z,11.67
2023-05-19T05:31:22.428Z,12.66
2023-05-19T05:36:26.514Z,13.81
2023-05-19T05:41:35.010Z,14.28
2023-05-19T05:46:38.139Z,14.79
2023-05-19T05:51:48.454Z,15.23
2023-05-19T05:56:57.747Z,16.15
2023-05-19T06:02:00.885Z,16.90
2023-05-19T06:07:05.147Z,17.50
2023-05-19T06:12:08.226Z,16.85
2023-05-19T06:17:10.895Z,16.70
2023-05-19T06:22:14.991Z,16.42
2023-05-19T06:27:17.676Z,16.79
2023-05-19T06:32:20.400Z,17.83
2023-05-19T06:37:25.081Z,18.35
2023-05-19T06:42:28.802Z,18.60
2023-05-19T06:47:31.605Z,19.17
2023-05-19T06:52:35.582Z,19.08
2023-05-19T06:57:38.386Z,19.40
2023-05-19T07:02:41.184Z,19.35
2023-05-19T07:07:45.290Z,19.56
2023-05-19T07:12:48.000Z,20.60
2023-05-19T07:17:50.839Z,21.43
2023-05-19T07:22:54.880Z,21.02
2023-05-19T07:27:57.740Z,21.20
2023-05-19T07:33:00.600Z,21.25
2023-05-19T07:38:04.677Z,22.07
2023-05-19T07:43:07.406Z,21.71
2023-05-19T07:48:10.179Z,22.36
2023-05-19T07:53:14.204Z,22.42
2023-05-19T07:58:17.456Z,22.10
2023-05-19T08:03:20.676Z,22.59
2023-05-19T08:08:25.177Z,22.94
2023-05-19T08:13:27.933Z,23.38
2023-05-19T08:18:30.656Z,22.73
2023-05-19T08:23:34.759Z,22.77
2023-05-19T08:28:37.422Z,22.91
2023-05-19T08:33:40.113Z,23.41
2023-05-19T08:38:44.307Z,22.98
2023-05-19T08:43:46.913Z,23.38
2023-05-19T08:48:50.508Z,22.76
2023-05-19T08:54:01.172Z,22.54
2023-05-19T08:59:04.155Z,21.30
2023-05-19T09:04:07.928Z,22.11
2023-05-19T09:09:12.482Z,22.68
2023-05-19T09:14:15.066Z,22.70
2023-05-19T09:19:17.900Z,23.45
2023-05-19T09:24:26.674Z,24.46
2023-05-19T09:29:29.324Z,23.83
2023-05-19T09:34:32.072Z,24.36
2023-05-19T09:39:36.177Z,24.41
2023-05-19T09:44:38.813Z,24.98
2023-05-19T09:49:48.463Z,24.98
2023-05-19T09:54:52.699Z,24.98
2023-05-19T09:59:58.120Z,24.83
2023-05-19T10:05:02.572Z,24.57
2023-05-19T10:10:12.599Z,24.35
2023-05-19T10:15:20.566Z,24.34
2023-05-19T10:20:27.762Z,23.19
2023-05-19T10:25:39.623Z,21.74
2023-05-19T10:30:46.896Z,21.45
2023-05-19T10:36:14.399Z,22.90
2023-05-19T10:41:28.785Z,23.56
2023-05-19T11:01:10.817Z,18.71
2023-05-19T11:06:19.069Z,18.51
2023-05-19T11:11:19.775Z,18.56
2023-05-19T11:17:38.726Z,18.71
2023-05-19T11:22:38.779Z,18.8
2023-05-19T11:27:38.488Z,19.23
2023-05-19T11:32:39.108Z,19.34
2023-05-19T11:37:36.960Z,19.13
2023-05-19T11:48:00.842Z,18.9
2023-05-19T11:52:41.766Z,18.92
2023-05-19T11:57:44.726Z,18.95
2023-05-19T12:32:13.918Z,19.57
2023-05-19T12:37:14.451Z,19.75
2023-05-19T12:44:40.418Z,19.39
2023-05-19T12:52:32.543Z,19.43
2023-05-19T13:00:17.655Z,19.77
2023-05-19T13:06:14.455Z,19.73
2023-05-19T13:28:59.516Z,19.82
2023-05-19T13:36:27.818Z,22.45
2023-05-19T13:41:30.649Z,23.18
2023-05-19T13:46:40.596Z,23.49
2023-05-19T13:51:27.818Z,21.81
2023-05-19T13:56:27.801Z,22.3
2023-05-19T14:01:27.833Z,23.02
2023-05-19T14:06:27.882Z,23.03
2023-05-19T14:11:27.842Z,22.99
2023-05-19T14:16:28.711Z,23.19
2023-05-19T14:21:28.240Z,23.4
2023-05-19T14:26:29.212Z,22.95
2023-05-19T14:31:28.078Z,22.1
2023-05-19T14:36:27.917Z,22.55
2023-05-19T14:41:27.893Z,22.63
2023-05-19T14:46:28.027Z,23
2023-05-19T14:51:27.949Z,22.66
2023-05-19T14:56:27.919Z,22.93
2023-05-19T15:01:28.033Z,23.01
2023-05-19T15:06:27.854Z,23.5
2023-05-19T15:11:28.145Z,23.97
2023-05-19T15:16:27.922Z,22.99
2023-05-19T15:21:28.170Z,22.3
2023-05-19T15:26:29.654Z,21.91
2023-05-19T15:31:27.947Z,22.84
2023-05-19T15:36:27.947Z,23.51
2023-05-19T15:41:27.888Z,23.09
2023-05-19T15:46:28.007Z,23.02
2023-05-19T15:51:28.110Z,21.7
2023-05-19T15:56:27.945Z,21.22
2023-05-19T16:01:27.959Z,21.71
2023-05-19T16:06:28.369Z,22.12
2023-05-19T16:11:28.096Z,22.29
2023-05-19T16:16:27.978Z,22.44
2023-05-19T16:21:27.954Z,22.9
2023-05-19T16:26:28.850Z,22.9
2023-05-19T16:31:28.008Z,23.48
2023-05-19T16:36:27.946Z,23.23
2023-05-19T16:41:28.000Z,22.12
2023-05-19T16:46:29.193Z,21.7
2023-05-19T16:51:28.077Z,22.47
2023-05-19T16:56:28.013Z,22.34
2023-05-19T17:01:28.065Z,21
2023-05-19T17:06:27.986Z,19.92
2023-05-19T17:11:28.018Z,19.24
2023-05-19T17:16:28.081Z,18.92
2023-05-19T17:21:27.965Z,18.96
2023-05-19T17:26:27.967Z,19.03
2023-05-19T17:31:28.158Z,20.07
2023-05-19T17:36:28.093Z,19.92
2023-05-19T17:41:28.065Z,19.04
2023-05-19T17:46:30.170Z,18.43
2023-05-19T17:51:28.339Z,18.02
2023-05-19T17:56:28.330Z,17.84
2023-05-19T18:01:28.455Z,17.83
2023-05-19T18:06:29.023Z,17.75
2023-05-19T18:11:28.402Z,17.54
2023-05-19T18:16:29.299Z,17.21
2023-05-19T18:21:28.154Z,16.88
2023-05-19T18:26:28.194Z,16.57
2023-05-19T18:31:28.291Z,16.38
2023-05-19T18:36:28.182Z,16.22
2023-05-19T18:41:28.105Z,16.05
2023-05-19T18:46:28.162Z,15.84
2023-05-19T18:51:28.178Z,15.67
2023-05-19T18:56:31.394Z,15.48
2023-05-19T19:01:28.262Z,15.24
2023-05-19T19:06:28.152Z,15.06
2023-05-19T19:11:28.081Z,14.89
2023-05-19T19:16:28.135Z,14.71
2023-05-19T19:21:29.660Z,14.43
2023-05-19T19:26:29.032Z,14.18
2023-05-19T19:31:29.611Z,13.95
2023-05-19T19:36:28.198Z,13.75
2023-05-19T19:41:29.690Z,13.54
2023-05-19T19:46:28.206Z,13.33
2023-05-19T19:51:28.220Z,13.19
2023-05-19T19:56:28.487Z,13.06
2023-05-19T20:01:28.316Z,12.97
2023-05-19T20:06:28.151Z,12.9
2023-05-19T20:11:28.264Z,12.77
2023-05-19T20:16:28.240Z,12.7
2023-05-19T20:21:28.235Z,12.62
2023-05-19T20:26:29.087Z,12.57
2023-05-19T20:31:28.179Z,12.52
2023-05-19T20:36:28.155Z,12.6
2023-05-19T20:41:28.146Z,12.73
2023-05-19T20:46:28.199Z,12.69
2023-05-19T20:51:28.777Z,12.66
2023-05-19T20:56:28.171Z,12.57
2023-05-19T21:01:29.753Z,12.52
2023-05-19T21:06:28.153Z,12.55
2023-05-19T21:11:28.164Z,12.46
2023-05-19T21:16:28.337Z,12.34
2023-05-19T21:21:28.290Z,12.25
2023-05-19T21:26:28.310Z,12.18
2023-05-19T21:31:28.647Z,12.11
2023-05-19T21:36:28.385Z,12.16
2023-05-19T21:41:28.359Z,11.99
2023-05-19T21:46:29.233Z,11.89
2023-05-19T21:51:29.105Z,11.78
2023-05-19T21:56:28.603Z,11.71
2023-05-19T22:01:28.357Z,11.58
2023-05-19T22:06:28.375Z,11.52
2023-05-19T22:11:28.325Z,11.35
2023-05-19T22:16:28.494Z,11.36
2023-05-19T22:21:28.389Z,11.25
2023-05-19T22:26:28.343Z,11.21
2023-05-19T22:31:28.372Z,11.13
2023-05-19T22:36:28.350Z,11.1
2023-05-19T22:41:28.376Z,10.97
2023-05-19T22:46:28.414Z,10.93
2023-05-19T22:51:28.408Z,10.94
2023-05-19T22:56:28.378Z,10.87
2023-05-19T23:01:28.433Z,10.83
2023-05-19T23:06:28.321Z,10.79
2023-05-19T23:11:28.375Z,10.75
2023-05-19T23:16:28.405Z,10.71
2023-05-19T23:21:28.402Z,10.71
2023-05-19T23:26:28.414Z,10.65
2023-05-19T23:31:28.472Z,10.62
2023-05-19T23:36:28.333Z,10.57
2023-05-19T23:41:28.372Z,10.57
2023-05-19T23:46:28.434Z,10.61
2023-05-19T23:51:28.455Z,10.66
2023-05-19T23:56:28.500Z,10.74
